Time;durP1;ratioP1;P1;durP2;ratioP2;P2;SDS_P1;SDS_P2;PMS_P1;PMS_P2;Temp;Humidity;BMP_temperature;BMP_pressure;BME280_temperature;BME280_humidity;BME280_pressure;Samples;Min_cycle;Max_cycle;Signal;HPM_P1;HPM_P2
2022/09/30 00:01:08;;;;;;;34.30;25.43;;;5.60;99.90;;;;;;5034592;28;20253;-64
2022/09/30 00:03:35;;;;;;;38.73;28.77;;;5.60;99.90;;;;;;5034300;28;20657;-64
2022/09/30 00:06:03;;;;;;;38.60;26.27;;;5.60;99.90;;;;;;5035159;28;20579;-64
2022/09/30 00:08:29;;;;;;;36.03;24.43;;;5.60;99.90;;;;;;5055666;28;20518;-64
2022/09/30 00:11:00;;;;;;;36.27;23.83;;;5.60;99.90;;;;;;5055470;28;20213;-64
2022/09/30 00:13:26;;;;;;;28.03;20.50;;;5.60;99.90;;;;;;5055446;28;20589;-64
2022/09/30 00:15:52;;;;;;;26.20;19.33;;;5.50;99.90;;;;;;5055428;28;20220;-64
2022/09/30 00:18:18;;;;;;;21.97;17.10;;;5.50;99.90;;;;;;5055512;28;20178;-64
2022/09/30 00:20:43;;;;;;;25.87;17.80;;;5.50;99.90;;;;;;5055257;28;20253;-64
2022/09/30 00:23:09;;;;;;;33.60;23.17;;;5.50;99.90;;;;;;5055838;28;20228;-64
2022/09/30 00:25:35;;;;;;;42.97;29.37;;;5.50;99.90;;;;;;5055530;28;20595;-64
2022/09/30 00:28:01;;;;;;;48.37;32.03;;;5.50;99.90;;;;;;5048350;28;20254;-64
2022/09/30 00:30:26;;;;;;;43.60;30.03;;;5.50;99.90;;;;;;5035380;28;20191;-64
2022/09/30 00:32:52;;;;;;;41.70;28.47;;;5.40;99.90;;;;;;5034989;28;20538;-64
2022/09/30 00:35:20;;;;;;;41.47;29.43;;;5.40;99.90;;;;;;5033945;28;20179;-64
2022/09/30 00:37:45;;;;;;;48.50;30.57;;;5.40;99.90;;;;;;5050368;28;20182;-64
2022/09/30 00:40:11;;;;;;;49.10;31.03;;;5.30;99.90;;;;;;5055232;28;20804;-64
2022/09/30 00:42:39;;;;;;;47.63;29.60;;;5.20;99.90;;;;;;5054840;28;20175;-64
2022/09/30 00:45:09;;;;;;;48.83;29.63;;;5.10;99.90;;;;;;5054607;28;20293;-64
2022/09/30 00:47:53;;;;;;;35.27;24.93;;;5.00;99.90;;;;;;5054067;28;20174;-64
2022/09/30 00:50:46;;;;;;;28.60;21.10;;;4.90;99.90;;;;;;5054881;28;20194;-64
2022/09/30 00:53:12;;;;;;;28.30;20.63;;;4.90;99.90;;;;;;5055280;28;20234;-64
2022/09/30 00:55:54;;;;;;;29.63;19.87;;;4.90;99.90;;;;;;5055011;28;20202;-64
2022/09/30 00:58:42;;;;;;;27.07;19.53;;;4.80;99.90;;;;;;5045136;28;20257;-64
2022/09/30 01:01:08;;;;;;;30.27;18.97;;;4.70;99.90;;;;;;5034846;28;20199;-64
2022/09/30 01:03:40;;;;;;;26.87;19.40;;;4.70;99.90;;;;;;5034517;28;20175;-63
2022/09/30 01:06:07;;;;;;;27.30;19.47;;;4.70;99.90;;;;;;5036419;28;20195;-63
2022/09/30 01:08:36;;;;;;;24.43;16.23;;;4.70;99.90;;;;;;5054567;28;20177;-64
2022/09/30 01:11:02;;;;;;;22.97;16.40;;;4.70;99.90;;;;;;5054520;28;20223;-64
2022/09/30 01:13:30;;;;;;;20.33;16.80;;;4.70;99.90;;;;;;5054385;28;20228;-64
2022/09/30 01:16:05;;;;;;;24.40;17.20;;;4.70;99.90;;;;;;5054707;28;20179;-64
2022/09/30 01:19:03;;;;;;;23.47;17.53;;;4.70;99.90;;;;;;5054408;28;20212;-64
2022/09/30 01:22:03;;;;;;;24.63;17.97;;;4.70;99.90;;;;;;5050907;28;20256;-64
2022/09/30 01:24:34;;;;;;;21.80;18.23;;;4.80;99.90;;;;;;5054041;28;20201;-64
2022/09/30 01:27:12;;;;;;;23.63;17.43;;;4.80;99.90;;;;;;5054159;28;20177;-63
2022/09/30 01:29:59;;;;;;;27.47;18.80;;;4.80;99.90;;;;;;5014530;28;20199;-64
2022/09/30 01:32:31;;;;;;;25.97;18.23;;;4.80;99.90;;;;;;5014565;28;20243;-64
2022/09/30 01:35:29;;;;;;;27.90;18.87;;;4.80;99.90;;;;;;5013207;28;20652;-64
2022/09/30 01:38:28;;;;;;;23.80;17.50;;;4.80;99.90;;;;;;5045903;28;20681;-64
2022/09/30 01:41:27;;;;;;;23.80;16.67;;;4.80;99.90;;;;;;5054499;28;20190;-63
2022/09/30 01:44:07;;;;;;;20.37;15.10;;;4.80;99.90;;;;;;5054514;28;20178;-63
2022/09/30 01:46:47;;;;;;;21.67;15.17;;;4.70;99.90;;;;;;5053891;28;20236;-63
2022/09/30 01:49:34;;;;;;;21.50;16.40;;;4.70;99.90;;;;;;5053725;28;20190;-64
2022/09/30 01:52:11;;;;;;;21.73;15.37;;;4.70;99.90;;;;;;5053698;28;20253;-64
2022/09/30 01:54:58;;;;;;;19.63;15.60;;;4.60;99.90;;;;;;5052440;28;20183;-64
2022/09/30 01:57:39;;;;;;;22.93;15.10;;;4.50;99.90;;;;;;5050491;28;20174;-65
2022/09/30 02:00:09;;;;;;;22.73;15.40;;;4.50;99.90;;;;;;5033426;28;20199;-64
2022/09/30 02:02:44;;;;;;;22.37;13.77;;;4.40;99.90;;;;;;5032242;28;20206;-64
2022/09/30 02:05:16;;;;;;;19.10;14.03;;;4.40;99.90;;;;;;5032423;28;20301;-64
2022/09/30 02:07:48;;;;;;;20.03;14.37;;;4.30;99.90;;;;;;5048522;28;20193;-64
2022/09/30 02:10:28;;;;;;;16.27;13.60;;;4.40;99.90;;;;;;5053708;28;20202;-64
2022/09/30 02:13:04;;;;;;;17.97;12.57;;;4.40;99.90;;;;;;5053517;28;20170;-64
2022/09/30 02:15:41;;;;;;;15.93;12.90;;;4.40;99.90;;;;;;5052294;28;20174;-64
2022/09/30 02:18:18;;;;;;;14.77;12.23;;;4.40;99.90;;;;;;5053592;28;20249;-65
2022/09/30 02:20:48;;;;;;;17.13;13.80;;;4.30;99.90;;;;;;5053825;28;20234;-64
2022/09/30 02:23:24;;;;;;;17.60;13.87;;;4.30;99.90;;;;;;5053654;28;20163;-64
2022/09/30 02:26:06;;;;;;;14.50;12.60;;;4.30;99.90;;;;;;5053407;28;20244;-64
2022/09/30 02:28:39;;;;;;;14.73;11.60;;;4.30;99.90;;;;;;5042184;28;20179;-64
2022/09/30 02:31:09;;;;;;;14.67;11.37;;;4.30;99.90;;;;;;5033447;28;20223;-64
2022/09/30 02:33:39;;;;;;;15.43;11.40;;;4.30;99.90;;;;;;5033776;28;20179;-64
2022/09/30 02:36:11;;;;;;;11.63;10.07;;;4.20;99.90;;;;;;5034904;28;20183;-65
2022/09/30 02:38:45;;;;;;;11.57;10.37;;;4.20;99.90;;;;;;5054733;28;20171;-64
2022/09/30 02:41:17;;;;;;;12.07;10.47;;;4.20;99.90;;;;;;5052616;28;20241;-64
2022/09/30 02:43:43;;;;;;;13.07;10.10;;;4.20;99.90;;;;;;5053416;28;20169;-64
2022/09/30 02:46:18;;;;;;;12.60;10.60;;;4.20;99.90;;;;;;5051833;28;20210;-64
2022/09/30 02:49:03;;;;;;;12.67;11.10;;;4.10;99.90;;;;;;5053020;28;20228;-64
2022/09/30 02:52:11;;;;;;;15.27;11.13;;;4.10;99.90;;;;;;5052751;28;20218;-64
2022/09/30 02:55:13;;;;;;;12.43;11.10;;;4.10;99.90;;;;;;5019955;28;20273;-64
2022/09/30 02:57:59;;;;;;;11.37;9.63;;;4.00;99.90;;;;;;5049061;28;20591;-64
2022/09/30 03:00:25;;;;;;;13.63;11.13;;;4.10;99.90;;;;;;5033226;28;20667;-63
2022/09/30 03:03:04;;;;;;;13.43;9.87;;;4.10;99.90;;;;;;5032942;28;20743;-63
2022/09/30 03:05:30;;;;;;;13.73;10.77;;;4.10;99.90;;;;;;5033276;28;20272;-64
2022/09/30 03:07:56;;;;;;;11.03;9.63;;;4.10;99.90;;;;;;5048307;28;20230;-64
2022/09/30 03:10:22;;;;;;;11.57;10.37;;;4.00;99.90;;;;;;5053574;28;20289;-63
2022/09/30 03:13:11;;;;;;;12.27;9.90;;;4.00;99.90;;;;;;5055288;28;20182;-64
2022/09/30 03:15:47;;;;;;;13.23;10.90;;;4.00;99.90;;;;;;5055522;28;20178;-64
2022/09/30 03:18:42;;;;;;;14.20;9.90;;;4.00;99.90;;;;;;5055563;28;20188;-64
2022/09/30 03:21:38;;;;;;;12.10;9.80;;;3.90;99.90;;;;;;5052578;28;20244;-63
2022/09/30 03:24:25;;;;;;;11.30;10.10;;;3.90;99.90;;;;;;5056815;28;20185;-63
2022/09/30 03:27:10;;;;;;;10.70;9.40;;;3.90;99.90;;;;;;5056130;28;20206;-63
2022/09/30 03:29:53;;;;;;;11.23;9.87;;;3.80;99.90;;;;;;5017104;28;20691;-64
2022/09/30 03:32:29;;;;;;;13.93;10.17;;;3.80;99.90;;;;;;5016746;28;20235;-64
2022/09/30 03:35:19;;;;;;;11.83;10.27;;;3.80;99.90;;;;;;5016742;28;20160;-63
2022/09/30 03:38:15;;;;;;;11.03;9.90;;;3.80;99.90;;;;;;5045748;28;20216;-63
2022/09/30 03:41:12;;;;;;;11.87;10.10;;;3.80;99.90;;;;;;5055202;28;20201;-64
2022/09/30 03:44:16;;;;;;;10.50;9.47;;;3.80;99.90;;;;;;5030245;28;20268;-64
2022/09/30 03:46:43;;;;;;;14.13;10.20;;;3.70;99.90;;;;;;5047447;28;20207;-65
2022/09/30 03:49:13;;;;;;;10.73;9.70;;;3.70;99.90;;;;;;5055915;28;20256;-64
2022/09/30 03:51:41;;;;;;;10.40;9.30;;;3.70;99.90;;;;;;5056648;28;20187;-64
2022/09/30 03:54:13;;;;;;;11.27;10.07;;;3.60;99.90;;;;;;5054727;28;20179;-64
2022/09/30 03:56:42;;;;;;;11.03;9.43;;;3.70;99.90;;;;;;5054682;28;20265;-64
2022/09/30 03:59:29;;;;;;;12.50;10.23;;;3.70;99.90;;;;;;5039765;28;20211;-64
2022/09/30 04:01:56;;;;;;;10.43;9.43;;;3.60;99.90;;;;;;5034565;28;20181;-64
2022/09/30 04:04:22;;;;;;;10.83;9.73;;;3.60;99.90;;;;;;5036106;28;20160;-64
2022/09/30 04:06:48;;;;;;;11.33;10.23;;;3.60;99.90;;;;;;5043699;28;20186;-64
2022/09/30 04:09:14;;;;;;;11.03;9.93;;;3.60;99.90;;;;;;5056456;28;20532;-64
2022/09/30 04:11:39;;;;;;;12.57;10.27;;;3.60;99.90;;;;;;5056053;28;20201;-63
2022/09/30 04:14:06;;;;;;;10.27;9.27;;;3.60;99.90;;;;;;5055896;28;20711;-66
2022/09/30 04:16:32;;;;;;;12.70;9.97;;;3.60;99.90;;;;;;5056123;28;20700;-66
2022/09/30 04:18:58;;;;;;;13.50;9.63;;;3.50;99.90;;;;;;5055479;28;20182;-66
2022/09/30 04:21:24;;;;;;;13.30;8.93;;;3.50;99.90;;;;;;5055446;28;20206;-64
2022/09/30 04:23:51;;;;;;;10.27;9.27;;;3.50;99.90;;;;;;5054284;28;20182;-64
2022/09/30 04:26:18;;;;;;;10.90;9.80;;;3.50;99.90;;;;;;5054052;28;20302;-64
2022/09/30 04:28:44;;;;;;;11.47;9.20;;;3.40;99.90;;;;;;5041167;28;20651;-64
2022/09/30 04:31:12;;;;;;;9.53;8.67;;;3.40;99.90;;;;;;5035589;28;20199;-64
2022/09/30 04:33:38;;;;;;;10.60;9.50;;;3.40;99.90;;;;;;5035034;28;20176;-64
2022/09/30 04:36:05;;;;;;;11.87;9.73;;;3.40;99.90;;;;;;5036569;28;20182;-64
2022/09/30 04:38:31;;;;;;;9.93;8.93;;;3.40;99.90;;;;;;5055393;28;20642;-64
2022/09/30 04:40:57;;;;;;;10.57;9.40;;;3.40;99.90;;;;;;5053701;28;20226;-64
2022/09/30 04:43:24;;;;;;;10.73;9.63;;;3.30;99.90;;;;;;5054891;28;20175;-66
2022/09/30 04:45:51;;;;;;;9.70;8.70;;;3.20;99.90;;;;;;5054756;28;20228;-66
2022/09/30 04:48:17;;;;;;;11.03;9.93;;;3.10;99.90;;;;;;5054904;28;20182;-66
2022/09/30 04:50:43;;;;;;;10.57;9.57;;;3.20;99.90;;;;;;5054913;28;20224;-66
2022/09/30 04:53:11;;;;;;;11.10;9.27;;;3.20;99.90;;;;;;5054770;28;20178;-64
2022/09/30 04:55:37;;;;;;;10.70;9.70;;;3.20;99.90;;;;;;5054873;28;20203;-66
2022/09/30 04:58:03;;;;;;;11.50;10.40;;;3.20;99.90;;;;;;5046273;28;20281;-66
2022/09/30 05:00:29;;;;;;;12.37;10.83;;;3.30;99.90;;;;;;5034590;28;20214;-66
2022/09/30 05:02:55;;;;;;;11.93;10.73;;;3.30;99.90;;;;;;5034567;28;20179;-66
2022/09/30 05:05:20;;;;;;;14.70;11.40;;;3.30;99.90;;;;;;5034509;28;20206;-66
2022/09/30 05:07:46;;;;;;;13.10;11.77;;;3.30;99.90;;;;;;5049920;28;20201;-66
2022/09/30 05:10:12;;;;;;;15.33;11.57;;;3.30;99.90;;;;;;5054545;28;20199;-66
2022/09/30 05:12:41;;;;;;;14.47;11.77;;;3.30;99.90;;;;;;5054402;28;20182;-66
2022/09/30 05:15:08;;;;;;;12.43;10.77;;;3.20;99.90;;;;;;5054477;28;20631;-65
2022/09/30 05:17:34;;;;;;;12.67;11.00;;;3.20;99.90;;;;;;5054278;28;20197;-66
2022/09/30 05:20:00;;;;;;;12.80;10.37;;;3.20;99.90;;;;;;5054220;28;20604;-64
2022/09/30 05:22:27;;;;;;;11.20;10.10;;;3.20;99.90;;;;;;5054563;28;20676;-64
2022/09/30 05:24:55;;;;;;;11.67;10.47;;;3.20;99.90;;;;;;5054316;28;20207;-64
2022/09/30 05:27:21;;;;;;;11.50;10.30;;;3.20;99.90;;;;;;5052722;28;20170;-64
2022/09/30 05:29:47;;;;;;;12.03;10.90;;;3.10;99.90;;;;;;5034329;28;20252;-64
2022/09/30 05:32:13;;;;;;;10.33;9.33;;;3.20;99.90;;;;;;5034498;28;20171;-63
2022/09/30 05:34:38;;;;;;;11.80;10.60;;;3.20;99.90;;;;;;5032390;28;20179;-64
2022/09/30 05:37:05;;;;;;;14.63;11.03;;;3.20;99.90;;;;;;5043821;28;20183;-63
2022/09/30 05:39:31;;;;;;;13.10;11.23;;;3.20;99.90;;;;;;5054040;28;20258;-64
2022/09/30 05:41:58;;;;;;;12.90;11.50;;;3.20;99.90;;;;;;5054561;28;20248;-63
2022/09/30 05:44:24;;;;;;;14.30;10.90;;;3.20;99.90;;;;;;5054315;28;20678;-64
2022/09/30 05:46:49;;;;;;;15.30;10.87;;;3.20;99.90;;;;;;5052649;28;20224;-64
2022/09/30 05:49:15;;;;;;;12.80;10.90;;;3.20;99.90;;;;;;5053583;28;20253;-65
2022/09/30 05:51:41;;;;;;;16.20;11.97;;;3.20;99.90;;;;;;5053629;28;20277;-65
2022/09/30 05:54:09;;;;;;;18.17;10.90;;;3.20;99.90;;;;;;5053785;28;20167;-65
2022/09/30 05:56:34;;;;;;;13.37;11.70;;;3.20;99.90;;;;;;5053754;28;20635;-64
2022/09/30 05:59:00;;;;;;;15.77;11.87;;;3.30;99.90;;;;;;5038558;28;20191;-64
2022/09/30 06:01:26;;;;;;;12.60;11.30;;;3.40;99.90;;;;;;5033904;28;20225;-64
2022/09/30 06:03:52;;;;;;;13.43;11.20;;;3.40;99.90;;;;;;5033480;28;20186;-64
2022/09/30 06:06:20;;;;;;;18.67;12.23;;;3.40;99.90;;;;;;5037001;28;20202;-65
2022/09/30 06:08:46;;;;;;;12.33;10.73;;;3.40;99.90;;;;;;5053561;28;20205;-64
2022/09/30 06:11:15;;;;;;;11.90;10.80;;;3.40;99.90;;;;;;5053517;28;20199;-64
2022/09/30 06:13:41;;;;;;;11.53;10.43;;;3.50;99.90;;;;;;5052263;28;20185;-64
2022/09/30 06:16:09;;;;;;;14.97;10.00;;;3.50;99.90;;;;;;5052212;28;20182;-64
2022/09/30 06:18:35;;;;;;;11.87;10.30;;;3.50;99.90;;;;;;5053773;28;20182;-64
2022/09/30 06:21:03;;;;;;;15.07;11.17;;;3.50;99.90;;;;;;5053357;28;20201;-65
2022/09/30 06:23:30;;;;;;;14.60;11.63;;;3.50;99.90;;;;;;5051967;28;20190;-64
2022/09/30 06:25:56;;;;;;;13.27;11.83;;;3.60;99.90;;;;;;5053189;28;20351;-64
2022/09/30 06:28:23;;;;;;;12.47;11.20;;;3.60;99.90;;;;;;5043366;28;20317;-64
2022/09/30 06:30:49;;;;;;;13.27;11.97;;;3.70;99.90;;;;;;5033809;28;20202;-63
2022/09/30 06:33:16;;;;;;;12.00;10.80;;;3.70;99.90;;;;;;5033075;28;20175;-63
2022/09/30 06:35:42;;;;;;;13.83;11.90;;;3.90;99.90;;;;;;5033260;28;20194;-63
2022/09/30 06:38:09;;;;;;;13.10;11.77;;;4.00;99.90;;;;;;5051372;28;20185;-63
2022/09/30 06:40:35;;;;;;;12.70;11.40;;;4.00;99.90;;;;;;5053304;28;20194;-63
2022/09/30 06:43:01;;;;;;;13.17;11.87;;;4.00;99.90;;;;;;5053305;28;20184;-63
2022/09/30 06:45:28;;;;;;;13.10;11.80;;;4.10;99.90;;;;;;5053229;28;20210;-63
2022/09/30 06:47:57;;;;;;;12.93;11.57;;;4.10;99.90;;;;;;5057023;28;20175;-63
2022/09/30 06:50:23;;;;;;;12.57;11.20;;;4.20;99.90;;;;;;5057134;28;20198;-63
2022/09/30 06:52:50;;;;;;;12.43;11.00;;;4.20;99.90;;;;;;5057070;28;20228;-63
2022/09/30 06:55:21;;;;;;;12.63;11.20;;;4.30;99.90;;;;;;5055733;28;20571;-63
2022/09/30 06:57:47;;;;;;;16.80;11.20;;;4.40;99.90;;;;;;5052192;28;20183;-64
2022/09/30 07:00:15;;;;;;;15.20;12.00;;;4.60;99.90;;;;;;5037066;28;20253;-63
2022/09/30 07:02:41;;;;;;;13.90;12.10;;;4.70;99.90;;;;;;5037878;28;20638;-64
2022/09/30 07:05:07;;;;;;;16.67;12.20;;;4.80;99.90;;;;;;5036980;28;20226;-64
2022/09/30 07:07:34;;;;;;;15.10;12.23;;;5.00;99.90;;;;;;5050173;28;20182;-64
2022/09/30 07:10:00;;;;;;;15.37;13.73;;;5.10;99.90;;;;;;5057075;28;20209;-64
2022/09/30 07:12:26;;;;;;;17.13;13.57;;;5.30;99.90;;;;;;5056712;28;20569;-64
2022/09/30 07:14:52;;;;;;;15.47;13.43;;;5.40;99.90;;;;;;5056719;28;20559;-64
2022/09/30 07:17:18;;;;;;;22.90;14.50;;;5.60;99.90;;;;;;5056907;28;20608;-67
2022/09/30 07:19:44;;;;;;;18.83;13.97;;;5.80;99.90;;;;;;5056631;28;20273;-67
2022/09/30 07:22:33;;;;;;;18.80;13.33;;;6.00;99.90;;;;;;5056793;28;20162;-67
2022/09/30 07:25:00;;;;;;;18.33;14.13;;;6.10;99.90;;;;;;5055268;28;20194;-66
2022/09/30 07:27:31;;;;;;;14.73;13.23;;;6.20;99.90;;;;;;5053707;28;20265;-68
2022/09/30 07:29:58;;;;;;;16.47;13.73;;;6.30;99.90;;;;;;5035234;28;20198;-68
2022/09/30 07:32:24;;;;;;;16.20;12.53;;;6.40;99.90;;;;;;5036600;28;20175;-68
2022/09/30 07:34:50;;;;;;;18.73;13.07;;;6.50;99.90;;;;;;5036446;28;20266;-68
2022/09/30 07:37:18;;;;;;;14.47;12.27;;;6.50;99.90;;;;;;5046428;28;20194;-70
2022/09/30 07:39:47;;;;;;;13.60;11.97;;;6.70;99.90;;;;;;5056268;28;20620;-69
2022/09/30 07:42:15;;;;;;;17.77;12.50;;;6.90;99.90;;;;;;5054754;28;20202;-69
2022/09/30 07:44:43;;;;;;;16.90;13.33;;;7.20;99.90;;;;;;5054865;28;20228;-69
2022/09/30 07:47:15;;;;;;;14.67;11.97;;;7.30;99.90;;;;;;5056779;28;20166;-64
2022/09/30 07:49:42;;;;;;;14.70;11.80;;;7.50;99.90;;;;;;5055890;28;20190;-64
2022/09/30 07:52:10;;;;;;;18.00;12.10;;;7.60;99.90;;;;;;5056293;28;20174;-69
2022/09/30 07:54:35;;;;;;;14.73;12.03;;;7.70;99.90;;;;;;5056107;28;20235;-69
2022/09/30 07:57:02;;;;;;;12.97;11.57;;;7.80;99.90;;;;;;5055749;28;20179;-68
2022/09/30 07:59:30;;;;;;;13.03;11.50;;;7.80;99.90;;;;;;5036960;28;20659;-69
2022/09/30 08:01:56;;;;;;;15.50;11.17;;;7.90;99.90;;;;;;5034785;28;20198;-68
2022/09/30 08:04:23;;;;;;;18.37;11.00;;;8.00;99.90;;;;;;5035964;28;20163;-68
2022/09/30 08:06:58;;;;;;;12.33;11.03;;;8.20;99.90;;;;;;5042238;28;20182;-64
2022/09/30 08:09:26;;;;;;;13.87;12.30;;;8.30;99.90;;;;;;5036631;28;20207;-64
2022/09/30 08:11:52;;;;;;;16.97;11.33;;;8.40;99.90;;;;;;5034390;28;20187;-65
2022/09/30 08:14:20;;;;;;;17.50;12.50;;;8.50;99.90;;;;;;5033655;28;20266;-68
2022/09/30 08:16:47;;;;;;;15.27;11.57;;;8.70;99.90;;;;;;5037713;28;20171;-64
2022/09/30 08:19:19;;;;;;;13.93;11.23;;;8.80;99.90;;;;;;5035455;28;20266;-64
2022/09/30 08:21:45;;;;;;;13.33;11.87;;;8.90;99.90;;;;;;5036502;28;20202;-65
2022/09/30 08:24:11;;;;;;;15.87;12.77;;;9.00;99.90;;;;;;5035700;28;20203;-64
2022/09/30 08:26:38;;;;;;;14.57;12.27;;;9.00;99.90;;;;;;5034446;28;20187;-64
2022/09/30 08:29:04;;;;;;;14.00;11.17;;;9.10;99.90;;;;;;5034072;28;20587;-65
2022/09/30 08:31:32;;;;;;;12.57;11.30;;;9.20;99.90;;;;;;5034707;28;20245;-64
2022/09/30 08:33:58;;;;;;;15.53;12.23;;;9.30;99.90;;;;;;5034501;28;20171;-64
2022/09/30 08:36:25;;;;;;;13.53;12.00;;;9.60;99.90;;;;;;5037607;28;20220;-66
2022/09/30 08:38:52;;;;;;;16.90;12.40;;;9.80;99.90;;;;;;5054284;28;20178;-64
2022/09/30 08:41:33;;;;;;;13.63;12.17;;;10.10;99.90;;;;;;5055152;28;20608;-64
2022/09/30 08:44:27;;;;;;;17.67;12.53;;;10.40;99.90;;;;;;5055008;28;20167;-64
2022/09/30 08:46:56;;;;;;;15.63;12.00;;;10.60;99.90;;;;;;5054785;28;20171;-64
2022/09/30 08:50:02;;;;;;;17.10;12.03;;;10.90;99.90;;;;;;5053357;28;20654;-66
2022/09/30 08:52:39;;;;;;;12.20;11.00;;;11.00;99.90;;;;;;5053705;28;20171;-65
2022/09/30 08:55:07;;;;;;;16.57;10.70;;;11.20;99.90;;;;;;5055411;28;20163;-65
2022/09/30 08:57:42;;;;;;;15.20;11.37;;;11.30;99.90;;;;;;5050425;28;20194;-65
2022/09/30 09:00:13;;;;;;;15.47;11.30;;;11.50;99.90;;;;;;5034616;28;20190;-65
2022/09/30 09:02:53;;;;;;;13.13;10.70;;;11.50;99.90;;;;;;5034660;28;20233;-66
2022/09/30 09:05:45;;;;;;;15.70;10.97;;;11.70;99.90;;;;;;5034686;28;20661;-65
2022/09/30 09:08:20;;;;;;;11.60;9.87;;;11.80;99.90;;;;;;5051635;28;20230;-65
2022/09/30 09:11:07;;;;;;;13.77;10.67;;;11.70;99.90;;;;;;5054481;28;20241;-65
2022/09/30 09:13:52;;;;;;;13.20;11.03;;;11.90;99.90;;;;;;5054623;28;20151;-66
2022/09/30 09:16:25;;;;;;;15.37;11.77;;;12.10;99.90;;;;;;5054829;28;20155;-65
2022/09/30 09:19:03;;;;;;;15.53;11.07;;;12.20;99.90;;;;;;5054428;28;20170;-65
2022/09/30 09:21:37;;;;;;;15.00;11.67;;;12.20;99.90;;;;;;5054341;28;20772;-65
2022/09/30 09:24:10;;;;;;;12.37;10.47;;;12.30;99.90;;;;;;5054373;28;20163;-66
2022/09/30 09:26:36;;;;;;;13.20;11.33;;;12.40;99.90;;;;;;5054458;28;20194;-66
2022/09/30 09:29:27;;;;;;;14.40;9.80;;;12.50;99.90;;;;;;5038743;28;20301;-65
2022/09/30 09:31:54;;;;;;;12.70;10.67;;;12.70;99.90;;;;;;5032974;28;20171;-65
2022/09/30 09:34:23;;;;;;;17.13;10.50;;;12.80;99.90;;;;;;5034033;28;20250;-65
2022/09/30 09:37:05;;;;;;;13.93;10.57;;;13.00;99.90;;;;;;5040234;28;20678;-65
2022/09/30 09:39:45;;;;;;;14.20;10.40;;;13.10;99.90;;;;;;5053954;28;20163;-65
2022/09/30 09:42:29;;;;;;;13.90;9.83;;;13.10;99.90;;;;;;5054200;28;20177;-65
2022/09/30 09:45:01;;;;;;;13.13;9.70;;;13.20;99.90;;;;;;5053788;28;20701;-72
2022/09/30 09:47:27;;;;;;;14.47;9.37;;;13.20;99.90;;;;;;5053769;28;20183;-72
2022/09/30 09:49:56;;;;;;;15.83;9.40;;;13.20;99.90;;;;;;5054236;28;20190;-65
2022/09/30 09:52:56;;;;;;;11.57;8.80;;;13.20;99.90;;;;;;5054761;28;20170;-65
2022/09/30 09:55:22;;;;;;;17.17;9.63;;;13.30;99.90;;;;;;5053747;28;20643;-65
2022/09/30 09:58:12;;;;;;;11.23;9.40;;;13.50;99.90;;;;;;5048349;28;20189;-65
2022/09/30 10:01:10;;;;;;;13.60;9.10;;;13.50;99.90;;;;;;5033709;28;20195;-65
2022/09/30 10:03:27;;;;;;;11.23;8.60;;;13.50;99.90;;;;;;5033465;28;20214;-65
2022/09/30 10:06:05;;;;;;;12.93;8.25;;;13.60;99.90;;;;;;5033881;28;20229;-65
2022/09/30 10:08:52;;;;;;;11.63;8.02;;;13.70;99.90;;;;;;5014030;28;20176;-71
2022/09/30 10:11:24;;;;;;;14.27;8.65;;;13.80;99.90;;;;;;5013954;28;20192;-71
2022/09/30 10:13:58;;;;;;;13.23;9.35;;;13.90;99.90;;;;;;5012715;28;20203;-65
2022/09/30 10:16:35;;;;;;;10.75;8.23;;;13.90;99.90;;;;;;5014088;28;20156;-65
2022/09/30 10:19:03;;;;;;;11.95;8.88;;;14.00;99.90;;;;;;5014015;28;20583;-65
2022/09/30 10:21:29;;;;;;;12.13;8.10;;;14.10;99.90;;;;;;5013824;28;20195;-65
2022/09/30 10:23:59;;;;;;;10.15;7.85;;;14.20;99.90;;;;;;5013648;28;20234;-65
2022/09/30 10:26:28;;;;;;;11.45;7.35;;;14.30;99.90;;;;;;5013659;28;20727;-65
2022/09/30 10:29:03;;;;;;;8.45;6.97;;;14.20;99.90;;;;;;5027767;28;20186;-65
2022/09/30 10:31:36;;;;;;;10.30;6.47;;;14.20;99.90;;;;;;5033648;28;20245;-68
2022/09/30 10:34:28;;;;;;;9.02;6.30;;;14.20;99.90;;;;;;5033418;28;20170;-71
2022/09/30 10:36:55;;;;;;;8.27;5.85;;;14.40;99.90;;;;;;5041636;28;20178;-65
2022/09/30 10:39:26;;;;;;;6.63;5.13;;;14.40;99.90;;;;;;5053289;28;20216;-65
2022/09/30 10:42:03;;;;;;;9.38;5.72;;;14.40;99.90;;;;;;5053505;28;20170;-65
2022/09/30 10:44:29;;;;;;;5.32;4.70;;;14.50;99.90;;;;;;5053124;28;20216;-65
2022/09/30 10:47:01;;;;;;;8.88;5.68;;;14.60;99.90;;;;;;5052104;28;20178;-66
2022/09/30 10:49:44;;;;;;;7.72;6.18;;;14.80;99.90;;;;;;5053226;28;20258;-66
2022/09/30 10:52:29;;;;;;;11.13;5.65;;;14.90;99.90;;;;;;5053993;28;20159;-65
2022/09/30 10:54:58;;;;;;;9.50;5.50;;;14.80;99.90;;;;;;5053847;28;20154;-65
2022/09/30 10:57:30;;;;;;;10.55;6.18;;;14.70;99.90;;;;;;5051540;28;20689;-66
2022/09/30 11:00:05;;;;;;;9.25;6.32;;;14.60;99.90;;;;;;5033825;28;20195;-65
2022/09/30 11:02:45;;;;;;;8.45;6.60;;;14.40;99.90;;;;;;5033916;28;20183;-66
2022/09/30 11:05:23;;;;;;;10.07;5.65;;;14.20;99.90;;;;;;5031974;28;20222;-65
2022/09/30 11:07:56;;;;;;;5.53;4.95;;;14.10;99.90;;;;;;5049057;28;20677;-66
2022/09/30 11:10:54;;;;;;;6.68;5.70;;;14.00;99.90;;;;;;5053435;28;20187;-71
2022/09/30 11:13:20;;;;;;;7.38;5.30;;;14.00;99.90;;;;;;5053685;28;20185;-66
2022/09/30 11:16:08;;;;;;;8.27;5.78;;;14.00;99.90;;;;;;5053641;28;20171;-72
2022/09/30 11:18:53;;;;;;;7.63;4.90;;;14.30;99.90;;;;;;5051647;28;20178;-65
2022/09/30 11:21:34;;;;;;;5.45;4.50;;;14.80;99.90;;;;;;5053652;28;20293;-72
2022/09/30 11:24:16;;;;;;;7.13;5.50;;;15.20;99.90;;;;;;5052992;28;20191;-65
2022/09/30 11:27:15;;;;;;;5.28;4.72;;;15.70;99.90;;;;;;5052965;28;20600;-74
2022/09/30 11:29:50;;;;;;;5.85;5.00;;;16.30;99.90;;;;;;5009131;28;20269;-74
2022/09/30 11:32:31;;;;;;;6.32;4.50;;;16.40;99.90;;;;;;5014872;28;20195;-66
2022/09/30 11:35:24;;;;;;;9.27;5.25;;;15.90;99.90;;;;;;5016589;28;20172;-68
2022/09/30 11:38:27;;;;;;;5.25;4.35;;;15.90;99.90;;;;;;5048109;28;20651;-65
2022/09/30 11:41:07;;;;;;;7.32;5.35;;;15.90;99.90;;;;;;5056123;28;20202;-65
2022/09/30 11:44:04;;;;;;;7.15;5.05;;;15.60;99.90;;;;;;5056513;28;20162;-65
2022/09/30 11:46:51;;;;;;;7.53;4.53;;;15.90;99.90;;;;;;5055924;28;20205;-66
2022/09/30 11:49:59;;;;;;;5.03;4.30;;;16.10;99.90;;;;;;5054541;28;20175;-66
2022/09/30 11:52:49;;;;;;;7.80;4.53;;;15.90;99.90;;;;;;5014257;28;20203;-66
2022/09/30 11:55:33;;;;;;;8.05;4.47;;;15.60;99.90;;;;;;5052210;28;20191;-66
2022/09/30 11:58:12;;;;;;;7.28;4.70;;;15.30;99.90;;;;;;5047892;28;20219;-65
2022/09/30 12:00:43;;;;;;;5.03;4.45;;;15.10;99.90;;;;;;5036183;28;20195;-65
2022/09/30 12:03:21;;;;;;;5.43;4.75;;;15.10;99.90;;;;;;5035832;28;20155;-65
2022/09/30 12:06:01;;;;;;;5.85;4.32;;;15.20;99.90;;;;;;5034830;28;20194;-66
2022/09/30 12:08:36;;;;;;;7.43;4.68;;;15.20;99.90;;;;;;5016309;28;20170;-65
2022/09/30 12:11:12;;;;;;;5.88;4.50;;;15.40;99.90;;;;;;5016409;28;20223;-65
2022/09/30 12:13:48;;;;;;;4.55;4.15;;;15.80;99.90;;;;;;5016159;28;20214;-65
2022/09/30 12:16:28;;;;;;;6.40;4.55;;;16.00;99.90;;;;;;5016150;28;20156;-65
2022/09/30 12:18:57;;;;;;;7.88;4.95;;;16.10;99.90;;;;;;5015737;28;20168;-65
2022/09/30 12:21:29;;;;;;;5.90;4.45;;;16.40;99.90;;;;;;5016159;28;20559;-65
2022/09/30 12:24:01;;;;;;;6.85;4.30;;;16.60;99.90;;;;;;5016011;28;20262;-65
2022/09/30 12:26:27;;;;;;;7.35;4.00;;;17.00;99.90;;;;;;5014363;28;20278;-65
2022/09/30 12:31:57;;;;;;;7.25;4.53;;;16.80;99.90;;;;;;5035669;28;20287;-65
2022/09/30 12:35:04;;;;;;;8.00;4.30;;;16.40;99.90;;;;;;5035228;28;20628;-65
2022/09/30 12:37:36;;;;;;;4.90;3.90;;;16.70;99.90;;;;;;5015272;28;20205;-65
2022/09/30 12:40:24;;;;;;;4.90;4.10;;;16.70;99.90;;;;;;5035476;28;20190;-65
2022/09/30 12:43:05;;;;;;;4.10;3.60;;;16.40;99.90;;;;;;5035536;28;20624;-65
2022/09/30 12:45:56;;;;;;;5.47;3.88;;;16.50;99.90;;;;;;5033853;28;20364;-65
2022/09/30 12:48:29;;;;;;;6.38;4.32;;;16.70;99.90;;;;;;5035278;28;20535;-73
2022/09/30 12:50:56;;;;;;;4.88;3.78;;;17.00;99.90;;;;;;5034297;28;20206;-73
2022/09/30 12:53:32;;;;;;;5.93;3.95;;;17.10;99.90;;;;;;5035436;28;20197;-65
2022/09/30 12:56:11;;;;;;;4.28;3.83;;;17.50;99.90;;;;;;5033677;28;20181;-65
2022/09/30 12:58:59;;;;;;;5.63;3.60;;;17.80;99.90;;;;;;5035073;28;20333;-65
2022/09/30 13:01:35;;;;;;;5.60;3.95;;;17.90;99.90;;;;;;5034850;28;20282;-65
2022/09/30 13:04:01;;;;;;;3.85;3.55;;;17.90;99.90;;;;;;5034846;28;20175;-65
2022/09/30 13:06:47;;;;;;;4.45;3.47;;;18.10;99.90;;;;;;5038961;28;20202;-65
2022/09/30 13:09:15;;;;;;;4.53;3.63;;;18.10;99.90;;;;;;5054611;28;20175;-69
2022/09/30 13:11:47;;;;;;;4.70;3.42;;;17.70;99.90;;;;;;5053355;28;20194;-70
2022/09/30 13:14:26;;;;;;;5.43;4.10;;;17.80;99.90;;;;;;5055668;28;20166;-71